Accueil
METAR-TAF:

METAR-TAF

Aéroports :

Marham, Angleterre

latitude: 52-39N, longitude: 000-34E, altitude: 23 m

Observation

Le bulletin a été fait il y a 17 minutes, à 09:50 UTC
Vent 11 kt de nord/nord-ouest
Température 9°C
Humidité 71%
Pression 1016 hPa
Visibilité 10 km ou plus
Quelques nuages à une hauteur de 2500 ft
Nuages fragmentés à une hauteur de 3000 ft

METAR: EGYM 280950Z 33011KT 9999 FEW025 BKN030 09/04 Q1016 BLU NOSIG

Heure: 11:07 (10:07 UTC)

Prévision

Le bulletin a été fait il y a 2 heures et 34 minutes, à 07:33 UTC
Prévision valable du 28 à 09 UTC au 28 à 18 UTC
Vent 8 kt de nord-ouest
Visibilité 10 km ou plus
Nuages épars à une hauteur de 3500 ft
Temporairement
du 28 à 09 UTC au 28 à 10 UTC
Nuages épars à une hauteur de 2200 ft
Evoluant progressivement
du 28 à 12 UTC au 28 à 15 UTC
Vent 8 kt de nord

TAF: EGYM 280733Z 2809/2818 32008KT 9999 SCT035 TEMPO 2809/2810 SCT022 BECMG 2812/2815 35008KT

Observations et prévisions météorologiques de plus de 4000 aéroports (messages METAR et TAF).

Les stations disponibles sont représentées par des disques jaunes et rouges sur la carte.

Passer la souris dessus pour voir le nom de la station.

Cliquer dessus pour voir les observations et prévisions météorologiques.

Pour changer de carte: cliquez sur les boutons verts avec une croix noire pour zoomer, sur le bouton vert avec un tiret pour effectuer un zoom arrière, ou sur les flèches vertes pour les cartes adjacentes.


METAR-TAF: